sensor_id;sensor_type;location;lat;lon;timestamp;P1;durP1;ratioP1;P2;durP2;ratioP2
51479;SDS011;37556;44.570;18.612;2023-04-07T00:00:45;2.95;;;2.65;;
51479;SDS011;37556;44.570;18.612;2023-04-07T00:03:11;2.10;;;1.90;;
51479;SDS011;37556;44.570;18.612;2023-04-07T00:05:37;5.50;;;2.17;;
51479;SDS011;37556;44.570;18.612;2023-04-07T00:08:03;1.80;;;1.75;;
51479;SDS011;37556;44.570;18.612;2023-04-07T00:10:30;4.63;;;4.28;;
51479;SDS011;37556;44.570;18.612;2023-04-07T00:12:56;7.10;;;3.08;;
51479;SDS011;37556;44.570;18.612;2023-04-07T00:15:22;2.70;;;2.00;;
51479;SDS011;37556;44.570;18.612;2023-04-07T00:17:48;1.63;;;1.55;;
51479;SDS011;37556;44.570;18.612;2023-04-07T00:20:14;1.50;;;1.40;;
51479;SDS011;37556;44.570;18.612;2023-04-07T00:22:41;2.33;;;1.92;;
51479;SDS011;37556;44.570;18.612;2023-04-07T00:25:07;1.45;;;1.35;;
51479;SDS011;37556;44.570;18.612;2023-04-07T00:27:33;4.03;;;3.58;;
51479;SDS011;37556;44.570;18.612;2023-04-07T00:29:59;4.15;;;2.58;;
51479;SDS011;37556;44.570;18.612;2023-04-07T00:32:25;6.35;;;2.83;;
51479;SDS011;37556;44.570;18.612;2023-04-07T00:34:51;2.83;;;2.63;;
51479;SDS011;37556;44.570;18.612;2023-04-07T00:37:17;12.60;;;4.13;;
51479;SDS011;37556;44.570;18.612;2023-04-07T00:39:44;2.45;;;2.28;;
51479;SDS011;37556;44.570;18.612;2023-04-07T00:42:10;5.82;;;2.05;;
51479;SDS011;37556;44.570;18.612;2023-04-07T00:44:36;2.85;;;2.65;;
51479;SDS011;37556;44.570;18.612;2023-04-07T00:47:03;7.05;;;5.20;;
51479;SDS011;37556;44.570;18.612;2023-04-07T00:49:29;2.50;;;1.60;;
51479;SDS011;37556;44.570;18.612;2023-04-07T00:51:56;1.23;;;1.23;;
51479;SDS011;37556;44.570;18.612;2023-04-07T00:54:22;1.10;;;1.10;;
51479;SDS011;37556;44.570;18.612;2023-04-07T00:56:49;3.28;;;2.72;;
51479;SDS011;37556;44.570;18.612;2023-04-07T00:59:15;7.72;;;3.47;;
51479;SDS011;37556;44.570;18.612;2023-04-07T01:04:11;8.50;;;5.40;;
51479;SDS011;37556;44.570;18.612;2023-04-07T01:06:39;2.13;;;1.23;;
51479;SDS011;37556;44.570;18.612;2023-04-07T01:12:23;3.55;;;1.70;;
51479;SDS011;37556;44.570;18.612;2023-04-07T01:14:52;3.92;;;2.20;;
51479;SDS011;37556;44.570;18.612;2023-04-07T01:17:19;11.68;;;2.67;;
51479;SDS011;37556;44.570;18.612;2023-04-07T01:19:51;2.25;;;1.58;;
51479;SDS011;37556;44.570;18.612;2023-04-07T01:22:22;10.80;;;2.15;;
51479;SDS011;37556;44.570;18.612;2023-04-07T01:29:59;4.03;;;2.40;;
51479;SDS011;37556;44.570;18.612;2023-04-07T01:32:26;2.53;;;2.28;;
51479;SDS011;37556;44.570;18.612;2023-04-07T01:34:53;16.92;;;2.80;;
51479;SDS011;37556;44.570;18.612;2023-04-07T01:37:20;1.52;;;1.52;;
51479;SDS011;37556;44.570;18.612;2023-04-07T01:39:46;3.17;;;1.23;;
51479;SDS011;37556;44.570;18.612;2023-04-07T01:42:12;1.55;;;1.42;;
51479;SDS011;37556;44.570;18.612;2023-04-07T01:44:40;5.22;;;1.02;;
51479;SDS011;37556;44.570;18.612;2023-04-07T01:49:32;0.70;;;0.70;;
51479;SDS011;37556;44.570;18.612;2023-04-07T01:52:00;1.75;;;1.23;;
51479;SDS011;37556;44.570;18.612;2023-04-07T01:56:52;1.05;;;0.82;;
51479;SDS011;37556;44.570;18.612;2023-04-07T01:59:18;4.10;;;2.75;;
51479;SDS011;37556;44.570;18.612;2023-04-07T02:01:44;8.27;;;5.20;;
51479;SDS011;37556;44.570;18.612;2023-04-07T02:04:11;3.50;;;2.15;;
51479;SDS011;37556;44.570;18.612;2023-04-07T02:06:42;1.83;;;1.73;;
51479;SDS011;37556;44.570;18.612;2023-04-07T02:09:09;6.43;;;2.45;;
51479;SDS011;37556;44.570;18.612;2023-04-07T02:11:36;1.02;;;1.02;;
51479;SDS011;37556;44.570;18.612;2023-04-07T02:14:03;6.03;;;2.95;;
51479;SDS011;37556;44.570;18.612;2023-04-07T02:16:31;4.82;;;4.32;;
51479;SDS011;37556;44.570;18.612;2023-04-07T02:18:57;3.42;;;3.22;;
51479;SDS011;37556;44.570;18.612;2023-04-07T02:23:50;3.28;;;2.70;;
51479;SDS011;37556;44.570;18.612;2023-04-07T02:26:16;2.35;;;1.65;;
51479;SDS011;37556;44.570;18.612;2023-04-07T02:28:42;1.33;;;1.23;;
51479;SDS011;37556;44.570;18.612;2023-04-07T02:31:08;4.35;;;3.72;;
51479;SDS011;37556;44.570;18.612;2023-04-07T02:33:37;1.98;;;1.85;;
51479;SDS011;37556;44.570;18.612;2023-04-07T02:36:03;1.48;;;1.42;;
51479;SDS011;37556;44.570;18.612;2023-04-07T02:38:30;0.80;;;0.77;;
51479;SDS011;37556;44.570;18.612;2023-04-07T02:40:56;1.58;;;1.48;;
51479;SDS011;37556;44.570;18.612;2023-04-07T02:43:23;1.75;;;1.65;;
51479;SDS011;37556;44.570;18.612;2023-04-07T02:45:49;3.35;;;2.03;;
51479;SDS011;37556;44.570;18.612;2023-04-07T02:48:15;0.98;;;0.98;;
51479;SDS011;37556;44.570;18.612;2023-04-07T02:50:42;2.63;;;2.03;;
51479;SDS011;37556;44.570;18.612;2023-04-07T02:53:08;0.50;;;0.50;;
51479;SDS011;37556;44.570;18.612;2023-04-07T02:55:34;2.92;;;2.45;;
51479;SDS011;37556;44.570;18.612;2023-04-07T02:58:01;3.13;;;2.83;;
51479;SDS011;37556;44.570;18.612;2023-04-07T03:00:27;1.35;;;1.30;;
51479;SDS011;37556;44.570;18.612;2023-04-07T03:02:53;2.60;;;2.40;;
51479;SDS011;37556;44.570;18.612;2023-04-07T03:05:19;2.55;;;1.88;;
51479;SDS011;37556;44.570;18.612;2023-04-07T03:07:45;10.00;;;5.03;;
51479;SDS011;37556;44.570;18.612;2023-04-07T03:10:11;1.65;;;1.55;;
51479;SDS011;37556;44.570;18.612;2023-04-07T03:12:38;1.58;;;1.48;;
51479;SDS011;37556;44.570;18.612;2023-04-07T03:17:30;3.38;;;2.40;;
51479;SDS011;37556;44.570;18.612;2023-04-07T03:19:56;13.85;;;10.40;;
51479;SDS011;37556;44.570;18.612;2023-04-07T03:22:22;17.08;;;10.45;;
51479;SDS011;37556;44.570;18.612;2023-04-07T03:24:48;2.38;;;1.85;;
51479;SDS011;37556;44.570;18.612;2023-04-07T03:27:15;1.27;;;1.17;;
51479;SDS011;37556;44.570;18.612;2023-04-07T03:29:41;3.60;;;2.35;;
51479;SDS011;37556;44.570;18.612;2023-04-07T03:34:33;0.82;;;0.82;;
51479;SDS011;37556;44.570;18.612;2023-04-07T03:36:59;1.00;;;1.00;;
51479;SDS011;37556;44.570;18.612;2023-04-07T03:39:26;1.23;;;1.17;;
51479;SDS011;37556;44.570;18.612;2023-04-07T03:41:52;7.35;;;1.83;;
51479;SDS011;37556;44.570;18.612;2023-04-07T03:44:18;2.55;;;2.40;;
51479;SDS011;37556;44.570;18.612;2023-04-07T03:46:44;2.28;;;2.17;;
51479;SDS011;37556;44.570;18.612;2023-04-07T03:49:12;9.07;;;2.28;;
51479;SDS011;37556;44.570;18.612;2023-04-07T03:51:38;1.90;;;1.45;;
51479;SDS011;37556;44.570;18.612;2023-04-07T03:54:04;3.85;;;1.67;;
51479;SDS011;37556;44.570;18.612;2023-04-07T03:56:30;0.82;;;0.73;;
51479;SDS011;37556;44.570;18.612;2023-04-07T03:58:56;0.73;;;0.73;;
51479;SDS011;37556;44.570;18.612;2023-04-07T04:01:23;3.55;;;3.25;;
51479;SDS011;37556;44.570;18.612;2023-04-07T04:03:49;3.55;;;1.77;;
51479;SDS011;37556;44.570;18.612;2023-04-07T04:08:41;0.95;;;0.95;;
51479;SDS011;37556;44.570;18.612;2023-04-07T04:11:07;3.40;;;3.03;;
51479;SDS011;37556;44.570;18.612;2023-04-07T04:13:33;2.15;;;1.38;;
51479;SDS011;37556;44.570;18.612;2023-04-07T04:16:00;1.33;;;1.08;;
51479;SDS011;37556;44.570;18.612;2023-04-07T04:20:52;0.85;;;0.80;;
51479;SDS011;37556;44.570;18.612;2023-04-07T04:23:18;2.72;;;1.98;;
51479;SDS011;37556;44.570;18.612;2023-04-07T04:25:44;3.03;;;2.10;;
51479;SDS011;37556;44.570;18.612;2023-04-07T04:28:10;14.48;;;6.82;;
51479;SDS011;37556;44.570;18.612;2023-04-07T04:30:37;6.25;;;5.10;;
51479;SDS011;37556;44.570;18.612;2023-04-07T04:33:03;4.63;;;4.18;;
51479;SDS011;37556;44.570;18.612;2023-04-07T04:35:29;2.08;;;1.45;;
51479;SDS011;37556;44.570;18.612;2023-04-07T04:37:55;2.10;;;1.45;;
51479;SDS011;37556;44.570;18.612;2023-04-07T04:40:21;0.95;;;0.93;;
51479;SDS011;37556;44.570;18.612;2023-04-07T04:42:47;1.10;;;1.10;;
51479;SDS011;37556;44.570;18.612;2023-04-07T04:45:13;1.90;;;1.80;;
51479;SDS011;37556;44.570;18.612;2023-04-07T04:47:40;1.33;;;1.23;;
51479;SDS011;37556;44.570;18.612;2023-04-07T04:50:08;1.35;;;1.30;;
51479;SDS011;37556;44.570;18.612;2023-04-07T04:52:34;3.85;;;3.55;;
51479;SDS011;37556;44.570;18.612;2023-04-07T04:55:02;4.47;;;1.95;;
51479;SDS011;37556;44.570;18.612;2023-04-07T04:57:28;2.38;;;1.90;;
51479;SDS011;37556;44.570;18.612;2023-04-07T04:59:54;3.13;;;2.92;;
51479;SDS011;37556;44.570;18.612;2023-04-07T05:02:20;1.10;;;1.10;;
51479;SDS011;37556;44.570;18.612;2023-04-07T05:04:46;1.75;;;1.73;;
51479;SDS011;37556;44.570;18.612;2023-04-07T05:07:12;4.40;;;3.58;;
51479;SDS011;37556;44.570;18.612;2023-04-07T05:09:38;9.68;;;6.28;;
51479;SDS011;37556;44.570;18.612;2023-04-07T05:14:31;29.77;;;11.23;;
51479;SDS011;37556;44.570;18.612;2023-04-07T05:16:57;17.60;;;12.90;;
51479;SDS011;37556;44.570;18.612;2023-04-07T05:19:25;15.93;;;12.10;;
51479;SDS011;37556;44.570;18.612;2023-04-07T05:21:53;21.30;;;9.63;;
51479;SDS011;37556;44.570;18.612;2023-04-07T05:24:20;12.43;;;6.88;;
51479;SDS011;37556;44.570;18.612;2023-04-07T05:26:46;13.45;;;8.57;;
51479;SDS011;37556;44.570;18.612;2023-04-07T05:29:12;9.65;;;8.77;;
51479;SDS011;37556;44.570;18.612;2023-04-07T05:31:38;3.45;;;3.15;;
51479;SDS011;37556;44.570;18.612;2023-04-07T05:34:05;6.32;;;4.75;;
51479;SDS011;37556;44.570;18.612;2023-04-07T05:36:32;14.20;;;10.43;;
51479;SDS011;37556;44.570;18.612;2023-04-07T05:38:59;4.93;;;4.53;;
51479;SDS011;37556;44.570;18.612;2023-04-07T05:41:25;4.78;;;3.45;;
51479;SDS011;37556;44.570;18.612;2023-04-07T05:43:52;4.93;;;3.47;;
51479;SDS011;37556;44.570;18.612;2023-04-07T05:46:18;8.60;;;5.13;;
51479;SDS011;37556;44.570;18.612;2023-04-07T05:48:44;8.07;;;5.90;;
51479;SDS011;37556;44.570;18.612;2023-04-07T05:51:10;3.78;;;3.47;;
51479;SDS011;37556;44.570;18.612;2023-04-07T05:53:55;8.80;;;5.90;;
51479;SDS011;37556;44.570;18.612;2023-04-07T05:56:21;16.17;;;3.03;;
51479;SDS011;37556;44.570;18.612;2023-04-07T06:01:17;2.88;;;2.45;;
51479;SDS011;37556;44.570;18.612;2023-04-07T06:03:44;4.47;;;4.03;;
51479;SDS011;37556;44.570;18.612;2023-04-07T06:06:25;4.10;;;3.42;;
51479;SDS011;37556;44.570;18.612;2023-04-07T06:11:59;4.78;;;4.38;;
51479;SDS011;37556;44.570;18.612;2023-04-07T06:14:28;5.68;;;4.78;;
51479;SDS011;37556;44.570;18.612;2023-04-07T06:16:57;6.15;;;4.50;;
51479;SDS011;37556;44.570;18.612;2023-04-07T06:25:44;6.45;;;3.67;;
51479;SDS011;37556;44.570;18.612;2023-04-07T06:28:29;8.55;;;3.15;;
51479;SDS011;37556;44.570;18.612;2023-04-07T06:31:00;4.38;;;2.45;;
51479;SDS011;37556;44.570;18.612;2023-04-07T06:39:56;5.68;;;1.67;;
51479;SDS011;37556;44.570;18.612;2023-04-07T06:42:51;1.27;;;1.17;;
51479;SDS011;37556;44.570;18.612;2023-04-07T06:45:19;1.27;;;1.17;;
51479;SDS011;37556;44.570;18.612;2023-04-07T06:47:52;2.33;;;2.13;;
51479;SDS011;37556;44.570;18.612;2023-04-07T06:53:02;0.63;;;0.63;;
51479;SDS011;37556;44.570;18.612;2023-04-07T06:55:41;2.20;;;1.55;;
51479;SDS011;37556;44.570;18.612;2023-04-07T07:03:38;0.88;;;0.88;;
51479;SDS011;37556;44.570;18.612;2023-04-07T07:06:44;2.88;;;1.83;;
51479;SDS011;37556;44.570;18.612;2023-04-07T07:12:26;1.60;;;1.50;;
51479;SDS011;37556;44.570;18.612;2023-04-07T07:14:54;1.30;;;1.30;;
51479;SDS011;37556;44.570;18.612;2023-04-07T07:20:37;13.48;;;4.07;;
51479;SDS011;37556;44.570;18.612;2023-04-07T07:23:04;8.55;;;3.17;;
51479;SDS011;37556;44.570;18.612;2023-04-07T07:28:34;3.72;;;3.22;;
51479;SDS011;37556;44.570;18.612;2023-04-07T07:31:07;6.18;;;3.72;;
51479;SDS011;37556;44.570;18.612;2023-04-07T07:33:48;6.15;;;4.65;;
51479;SDS011;37556;44.570;18.612;2023-04-07T07:36:16;4.20;;;1.42;;
51479;SDS011;37556;44.570;18.612;2023-04-07T07:38:42;6.30;;;1.25;;
51479;SDS011;37556;44.570;18.612;2023-04-07T07:41:17;9.55;;;1.35;;
51479;SDS011;37556;44.570;18.612;2023-04-07T07:44:01;1.23;;;0.95;;
51479;SDS011;37556;44.570;18.612;2023-04-07T07:49:33;0.98;;;0.98;;
51479;SDS011;37556;44.570;18.612;2023-04-07T07:52:03;1.25;;;1.25;;
51479;SDS011;37556;44.570;18.612;2023-04-07T07:54:38;1.30;;;1.25;;
51479;SDS011;37556;44.570;18.612;2023-04-07T07:57:07;1.65;;;1.35;;
51479;SDS011;37556;44.570;18.612;2023-04-07T07:59:53;0.63;;;0.52;;
51479;SDS011;37556;44.570;18.612;2023-04-07T08:02:19;1.25;;;1.20;;
51479;SDS011;37556;44.570;18.612;2023-04-07T08:04:49;1.65;;;0.95;;
51479;SDS011;37556;44.570;18.612;2023-04-07T08:07:18;0.65;;;0.65;;
51479;SDS011;37556;44.570;18.612;2023-04-07T08:12:44;1.65;;;1.55;;
51479;SDS011;37556;44.570;18.612;2023-04-07T08:15:13;2.63;;;1.30;;
51479;SDS011;37556;44.570;18.612;2023-04-07T08:17:44;1.00;;;1.00;;
51479;SDS011;37556;44.570;18.612;2023-04-07T08:20:15;0.95;;;0.60;;
51479;SDS011;37556;44.570;18.612;2023-04-07T08:22:47;1.80;;;1.05;;
51479;SDS011;37556;44.570;18.612;2023-04-07T08:25:14;0.88;;;0.88;;
51479;SDS011;37556;44.570;18.612;2023-04-07T08:27:44;1.40;;;1.05;;
51479;SDS011;37556;44.570;18.612;2023-04-07T08:30:11;1.67;;;0.80;;
51479;SDS011;37556;44.570;18.612;2023-04-07T08:32:41;1.48;;;1.48;;
51479;SDS011;37556;44.570;18.612;2023-04-07T08:35:14;2.90;;;0.93;;
51479;SDS011;37556;44.570;18.612;2023-04-07T08:37:43;0.77;;;0.77;;
51479;SDS011;37556;44.570;18.612;2023-04-07T08:40:09;1.95;;;1.85;;
51479;SDS011;37556;44.570;18.612;2023-04-07T08:42:38;1.10;;;1.00;;
51479;SDS011;37556;44.570;18.612;2023-04-07T08:45:13;1.30;;;0.75;;
51479;SDS011;37556;44.570;18.612;2023-04-07T08:47:41;3.15;;;0.60;;
51479;SDS011;37556;44.570;18.612;2023-04-07T08:53:25;1.73;;;0.98;;
51479;SDS011;37556;44.570;18.612;2023-04-07T08:55:54;0.77;;;0.77;;
51479;SDS011;37556;44.570;18.612;2023-04-07T08:58:23;0.63;;;0.63;;
51479;SDS011;37556;44.570;18.612;2023-04-07T09:00:50;0.80;;;0.80;;
51479;SDS011;37556;44.570;18.612;2023-04-07T09:09:11;1.13;;;0.90;;
51479;SDS011;37556;44.570;18.612;2023-04-07T09:11:47;2.05;;;1.05;;
51479;SDS011;37556;44.570;18.612;2023-04-07T09:20:20;0.90;;;0.90;;
51479;SDS011;37556;44.570;18.612;2023-04-07T09:22:55;0.95;;;0.93;;
51479;SDS011;37556;44.570;18.612;2023-04-07T09:31:09;0.52;;;0.52;;
51479;SDS011;37556;44.570;18.612;2023-04-07T09:33:38;0.60;;;0.60;;
51479;SDS011;37556;44.570;18.612;2023-04-07T09:39:19;0.77;;;0.77;;
51479;SDS011;37556;44.570;18.612;2023-04-07T09:41:48;0.77;;;0.75;;
51479;SDS011;37556;44.570;18.612;2023-04-07T09:44:15;0.57;;;0.55;;
51479;SDS011;37556;44.570;18.612;2023-04-07T09:46:54;1.02;;;1.02;;
51479;SDS011;37556;44.570;18.612;2023-04-07T09:49:21;1.23;;;1.10;;
51479;SDS011;37556;44.570;18.612;2023-04-07T09:51:55;0.73;;;0.73;;
51479;SDS011;37556;44.570;18.612;2023-04-07T09:54:40;0.85;;;0.82;;
51479;SDS011;37556;44.570;18.612;2023-04-07T09:57:08;1.52;;;0.73;;
51479;SDS011;37556;44.570;18.612;2023-04-07T09:59:38;0.08;;;0.08;;
51479;SDS011;37556;44.570;18.612;2023-04-07T10:05:04;1.08;;;1.08;;
51479;SDS011;37556;44.570;18.612;2023-04-07T10:07:41;2.92;;;1.02;;
51479;SDS011;37556;44.570;18.612;2023-04-07T10:10:07;1.05;;;0.70;;
51479;SDS011;37556;44.570;18.612;2023-04-07T10:12:35;1.85;;;1.75;;
51479;SDS011;37556;44.570;18.612;2023-04-07T10:15:04;2.10;;;1.17;;
51479;SDS011;37556;44.570;18.612;2023-04-07T10:17:36;5.38;;;1.25;;
51479;SDS011;37556;44.570;18.612;2023-04-07T10:20:08;1.80;;;0.93;;
51479;SDS011;37556;44.570;18.612;2023-04-07T10:22:36;0.20;;;0.20;;
51479;SDS011;37556;44.570;18.612;2023-04-07T10:25:10;1.05;;;1.00;;
51479;SDS011;37556;44.570;18.612;2023-04-07T10:27:39;2.28;;;1.63;;
51479;SDS011;37556;44.570;18.612;2023-04-07T10:30:14;3.05;;;1.38;;
51479;SDS011;37556;44.570;18.612;2023-04-07T10:32:48;3.88;;;1.25;;
51479;SDS011;37556;44.570;18.612;2023-04-07T10:35:15;1.85;;;1.75;;
51479;SDS011;37556;44.570;18.612;2023-04-07T10:40:27;0.90;;;0.90;;
51479;SDS011;37556;44.570;18.612;2023-04-07T10:42:53;0.80;;;0.75;;
51479;SDS011;37556;44.570;18.612;2023-04-07T10:48:10;1.58;;;1.10;;
51479;SDS011;37556;44.570;18.612;2023-04-07T10:50:37;1.63;;;1.52;;
51479;SDS011;37556;44.570;18.612;2023-04-07T10:53:10;2.28;;;1.15;;
51479;SDS011;37556;44.570;18.612;2023-04-07T11:03:26;1.17;;;1.15;;
51479;SDS011;37556;44.570;18.612;2023-04-07T11:08:58;1.70;;;1.60;;
51479;SDS011;37556;44.570;18.612;2023-04-07T11:11:37;1.83;;;1.60;;
51479;SDS011;37556;44.570;18.612;2023-04-07T11:14:04;2.72;;;0.80;;
51479;SDS011;37556;44.570;18.612;2023-04-07T11:16:37;4.03;;;2.70;;
51479;SDS011;37556;44.570;18.612;2023-04-07T11:19:07;6.15;;;3.42;;
51479;SDS011;37556;44.570;18.612;2023-04-07T11:21:33;3.38;;;3.08;;
51479;SDS011;37556;44.570;18.612;2023-04-07T11:24:03;0.82;;;0.60;;
51479;SDS011;37556;44.570;18.612;2023-04-07T11:26:35;1.05;;;1.05;;
51479;SDS011;37556;44.570;18.612;2023-04-07T11:29:04;2.55;;;2.33;;
51479;SDS011;37556;44.570;18.612;2023-04-07T11:31:30;1.60;;;1.50;;
51479;SDS011;37556;44.570;18.612;2023-04-07T11:33:57;1.40;;;1.40;;
51479;SDS011;37556;44.570;18.612;2023-04-07T11:41:59;2.08;;;1.33;;
51479;SDS011;37556;44.570;18.612;2023-04-07T11:44:25;2.72;;;1.13;;
51479;SDS011;37556;44.570;18.612;2023-04-07T11:46:52;6.38;;;4.60;;
51479;SDS011;37556;44.570;18.612;2023-04-07T11:49:19;3.70;;;2.05;;
51479;SDS011;37556;44.570;18.612;2023-04-07T11:51:45;1.73;;;1.52;;
51479;SDS011;37556;44.570;18.612;2023-04-07T11:54:11;0.40;;;0.32;;
51479;SDS011;37556;44.570;18.612;2023-04-07T11:56:42;1.38;;;1.27;;
51479;SDS011;37556;44.570;18.612;2023-04-07T11:59:08;0.75;;;0.45;;
51479;SDS011;37556;44.570;18.612;2023-04-07T12:01:44;0.50;;;0.50;;
51479;SDS011;37556;44.570;18.612;2023-04-07T12:04:13;0.90;;;0.90;;
51479;SDS011;37556;44.570;18.612;2023-04-07T12:06:40;1.38;;;1.35;;
51479;SDS011;37556;44.570;18.612;2023-04-07T12:11:51;1.75;;;1.52;;
51479;SDS011;37556;44.570;18.612;2023-04-07T12:16:44;1.35;;;0.90;;
51479;SDS011;37556;44.570;18.612;2023-04-07T12:19:10;0.60;;;0.60;;
51479;SDS011;37556;44.570;18.612;2023-04-07T12:21:36;1.20;;;1.20;;
51479;SDS011;37556;44.570;18.612;2023-04-07T12:24:03;1.42;;;1.33;;
51479;SDS011;37556;44.570;18.612;2023-04-07T12:26:29;1.30;;;1.20;;
51479;SDS011;37556;44.570;18.612;2023-04-07T12:28:55;1.65;;;1.55;;
51479;SDS011;37556;44.570;18.612;2023-04-07T12:31:22;0.57;;;0.57;;
51479;SDS011;37556;44.570;18.612;2023-04-07T12:33:49;0.63;;;0.63;;
51479;SDS011;37556;44.570;18.612;2023-04-07T12:36:15;0.75;;;0.65;;
51479;SDS011;37556;44.570;18.612;2023-04-07T12:38:41;1.30;;;1.05;;
51479;SDS011;37556;44.570;18.612;2023-04-07T12:43:33;4.60;;;1.30;;
51479;SDS011;37556;44.570;18.612;2023-04-07T12:46:00;0.70;;;0.70;;
51479;SDS011;37556;44.570;18.612;2023-04-07T12:48:26;1.60;;;1.50;;
51479;SDS011;37556;44.570;18.612;2023-04-07T12:50:52;2.03;;;1.20;;
51479;SDS011;37556;44.570;18.612;2023-04-07T12:53:18;1.35;;;1.25;;
51479;SDS011;37556;44.570;18.612;2023-04-07T12:55:45;0.95;;;0.95;;
51479;SDS011;37556;44.570;18.612;2023-04-07T12:58:12;1.92;;;1.83;;
51479;SDS011;37556;44.570;18.612;2023-04-07T13:00:38;3.35;;;2.45;;
51479;SDS011;37556;44.570;18.612;2023-04-07T13:03:05;2.58;;;1.92;;
51479;SDS011;37556;44.570;18.612;2023-04-07T13:07:58;0.98;;;0.93;;
51479;SDS011;37556;44.570;18.612;2023-04-07T13:12:51;0.93;;;0.93;;
51479;SDS011;37556;44.570;18.612;2023-04-07T13:17:43;0.47;;;0.47;;
51479;SDS011;37556;44.570;18.612;2023-04-07T13:22:35;1.25;;;1.20;;
51479;SDS011;37556;44.570;18.612;2023-04-07T13:25:01;1.80;;;1.70;;
51479;SDS011;37556;44.570;18.612;2023-04-07T13:27:28;4.20;;;1.17;;
51479;SDS011;37556;44.570;18.612;2023-04-07T13:29:54;1.20;;;1.20;;
51479;SDS011;37556;44.570;18.612;2023-04-07T13:32:20;0.30;;;0.30;;
51479;SDS011;37556;44.570;18.612;2023-04-07T13:34:47;1.42;;;1.38;;
51479;SDS011;37556;44.570;18.612;2023-04-07T13:39:40;1.58;;;0.93;;
51479;SDS011;37556;44.570;18.612;2023-04-07T13:44:33;0.38;;;0.38;;
51479;SDS011;37556;44.570;18.612;2023-04-07T13:47:01;0.90;;;0.88;;
51479;SDS011;37556;44.570;18.612;2023-04-07T13:51:53;0.95;;;0.95;;
51479;SDS011;37556;44.570;18.612;2023-04-07T13:54:19;0.80;;;0.28;;
51479;SDS011;37556;44.570;18.612;2023-04-07T13:56:48;1.90;;;0.98;;
51479;SDS011;37556;44.570;18.612;2023-04-07T13:59:15;0.68;;;0.68;;
51479;SDS011;37556;44.570;18.612;2023-04-07T14:04:07;0.95;;;0.95;;
51479;SDS011;37556;44.570;18.612;2023-04-07T14:06:33;1.02;;;1.02;;
51479;SDS011;37556;44.570;18.612;2023-04-07T14:09:01;1.05;;;0.32;;
51479;SDS011;37556;44.570;18.612;2023-04-07T14:11:27;0.20;;;0.20;;
51479;SDS011;37556;44.570;18.612;2023-04-07T14:13:54;1.30;;;1.15;;
51479;SDS011;37556;44.570;18.612;2023-04-07T14:16:23;0.68;;;0.65;;
51479;SDS011;37556;44.570;18.612;2023-04-07T14:18:50;0.20;;;0.20;;
51479;SDS011;37556;44.570;18.612;2023-04-07T14:21:16;0.90;;;0.90;;
51479;SDS011;37556;44.570;18.612;2023-04-07T14:23:42;0.00;;;0.00;;
51479;SDS011;37556;44.570;18.612;2023-04-07T14:26:09;1.42;;;1.33;;
51479;SDS011;37556;44.570;18.612;2023-04-07T14:28:35;0.75;;;0.73;;
51479;SDS011;37556;44.570;18.612;2023-04-07T14:31:02;1.00;;;1.00;;
51479;SDS011;37556;44.570;18.612;2023-04-07T14:33:28;1.00;;;1.00;;
51479;SDS011;37556;44.570;18.612;2023-04-07T14:38:21;0.70;;;0.70;;
51479;SDS011;37556;44.570;18.612;2023-04-07T14:40:49;1.42;;;1.33;;
51479;SDS011;37556;44.570;18.612;2023-04-07T14:43:16;0.57;;;0.47;;
51479;SDS011;37556;44.570;18.612;2023-04-07T14:45:43;0.30;;;0.30;;
51479;SDS011;37556;44.570;18.612;2023-04-07T14:48:09;1.02;;;0.65;;
51479;SDS011;37556;44.570;18.612;2023-04-07T14:53:01;0.30;;;0.30;;
51479;SDS011;37556;44.570;18.612;2023-04-07T14:55:28;0.63;;;0.63;;
51479;SDS011;37556;44.570;18.612;2023-04-07T14:57:55;0.50;;;0.47;;
51479;SDS011;37556;44.570;18.612;2023-04-07T15:00:21;0.75;;;0.50;;
51479;SDS011;37556;44.570;18.612;2023-04-07T15:02:49;1.25;;;0.45;;
51479;SDS011;37556;44.570;18.612;2023-04-07T15:05:17;1.10;;;1.10;;
51479;SDS011;37556;44.570;18.612;2023-04-07T15:07:46;1.35;;;1.25;;
51479;SDS011;37556;44.570;18.612;2023-04-07T15:10:15;0.57;;;0.57;;
51479;SDS011;37556;44.570;18.612;2023-04-07T15:12:42;0.50;;;0.47;;
51479;SDS011;37556;44.570;18.612;2023-04-07T15:15:11;0.85;;;0.85;;
51479;SDS011;37556;44.570;18.612;2023-04-07T15:17:37;4.93;;;1.75;;
51479;SDS011;37556;44.570;18.612;2023-04-07T15:20:03;0.88;;;0.88;;
51479;SDS011;37556;44.570;18.612;2023-04-07T15:22:30;1.65;;;1.55;;
51479;SDS011;37556;44.570;18.612;2023-04-07T15:24:56;0.75;;;0.75;;
51479;SDS011;37556;44.570;18.612;2023-04-07T15:27:22;0.52;;;0.52;;
51479;SDS011;37556;44.570;18.612;2023-04-07T15:29:48;0.82;;;0.80;;
51479;SDS011;37556;44.570;18.612;2023-04-07T15:32:15;1.95;;;1.13;;
51479;SDS011;37556;44.570;18.612;2023-04-07T15:34:41;0.73;;;0.73;;
51479;SDS011;37556;44.570;18.612;2023-04-07T15:37:07;0.47;;;0.47;;
51479;SDS011;37556;44.570;18.612;2023-04-07T15:39:33;0.80;;;0.80;;
51479;SDS011;37556;44.570;18.612;2023-04-07T15:44:26;2.17;;;2.05;;
51479;SDS011;37556;44.570;18.612;2023-04-07T15:46:52;1.38;;;1.25;;
51479;SDS011;37556;44.570;18.612;2023-04-07T15:51:46;0.20;;;0.20;;
51479;SDS011;37556;44.570;18.612;2023-04-07T15:54:12;1.50;;;1.40;;
51479;SDS011;37556;44.570;18.612;2023-04-07T15:56:38;1.85;;;0.77;;
51479;SDS011;37556;44.570;18.612;2023-04-07T15:59:04;3.60;;;0.77;;
51479;SDS011;37556;44.570;18.612;2023-04-07T16:01:31;1.02;;;1.02;;
51479;SDS011;37556;44.570;18.612;2023-04-07T16:06:23;0.60;;;0.60;;
51479;SDS011;37556;44.570;18.612;2023-04-07T16:08:49;0.88;;;0.47;;
51479;SDS011;37556;44.570;18.612;2023-04-07T16:11:15;1.42;;;1.33;;
51479;SDS011;37556;44.570;18.612;2023-04-07T16:13:42;3.92;;;3.22;;
51479;SDS011;37556;44.570;18.612;2023-04-07T16:16:08;0.90;;;0.45;;
51479;SDS011;37556;44.570;18.612;2023-04-07T16:21:00;0.43;;;0.43;;
51479;SDS011;37556;44.570;18.612;2023-04-07T16:23:26;0.73;;;0.73;;
51479;SDS011;37556;44.570;18.612;2023-04-07T16:25:52;1.77;;;1.45;;
51479;SDS011;37556;44.570;18.612;2023-04-07T16:28:19;0.55;;;0.55;;
51479;SDS011;37556;44.570;18.612;2023-04-07T16:30:45;0.32;;;0.32;;
51479;SDS011;37556;44.570;18.612;2023-04-07T16:33:11;0.63;;;0.63;;
51479;SDS011;37556;44.570;18.612;2023-04-07T16:35:37;0.60;;;0.57;;
51479;SDS011;37556;44.570;18.612;2023-04-07T16:38:04;4.13;;;1.75;;
51479;SDS011;37556;44.570;18.612;2023-04-07T16:40:30;0.25;;;0.25;;
51479;SDS011;37556;44.570;18.612;2023-04-07T16:42:57;0.38;;;0.20;;
51479;SDS011;37556;44.570;18.612;2023-04-07T16:47:49;0.75;;;0.75;;
51479;SDS011;37556;44.570;18.612;2023-04-07T16:50:15;1.42;;;1.33;;
51479;SDS011;37556;44.570;18.612;2023-04-07T16:55:07;2.13;;;2.03;;
51479;SDS011;37556;44.570;18.612;2023-04-07T16:57:34;4.03;;;2.05;;
51479;SDS011;37556;44.570;18.612;2023-04-07T17:00:00;2.70;;;2.45;;
51479;SDS011;37556;44.570;18.612;2023-04-07T17:02:26;5.25;;;3.72;;
51479;SDS011;37556;44.570;18.612;2023-04-07T17:04:53;10.93;;;3.67;;
51479;SDS011;37556;44.570;18.612;2023-04-07T17:07:19;4.80;;;3.33;;
51479;SDS011;37556;44.570;18.612;2023-04-07T17:09:45;1.83;;;1.73;;
51479;SDS011;37556;44.570;18.612;2023-04-07T17:12:11;1.65;;;1.55;;
51479;SDS011;37556;44.570;18.612;2023-04-07T17:14:37;3.92;;;3.58;;
51479;SDS011;37556;44.570;18.612;2023-04-07T17:17:03;1.42;;;1.40;;
51479;SDS011;37556;44.570;18.612;2023-04-07T17:19:30;1.80;;;1.70;;
51479;SDS011;37556;44.570;18.612;2023-04-07T17:21:56;4.95;;;1.50;;
51479;SDS011;37556;44.570;18.612;2023-04-07T17:24:22;1.63;;;1.45;;